Time;durP1;ratioP1;P1;durP2;ratioP2;P2;SDS_P1;SDS_P2;PMS_P1;PMS_P2;Temp;Humidity;BMP_temperature;BMP_pressure;BME280_temperature;BME280_humidity;BME280_pressure;Samples;Min_cycle;Max_cycle;Signal;HPM_P1;HPM_P2
2022/10/19 00:16:28;;;;;;;1.92;1.15;;;;;;;-145.06;24.23;60892.56;4707314;29;20496;-93
2022/10/19 00:20:06;;;;;;;;;;;;;;;;;;;;;
2022/10/19 00:23:46;;;;;;;;;;;;;;;;;;;;;
2022/10/19 00:31:17;;;;;;;;;;;;;;;;;;;;;
2022/10/19 00:41:49;;;;;;;0.70;0.50;;;;;;;-145.06;24.23;60892.56;4761880;29;20258;-94
2022/10/19 00:58:51;;;;;;;;;;;;;;;;;;;;;
2022/10/19 01:02:25;;;;;;;;;;;;;;;;;;;;;
2022/10/19 01:13:23;;;;;;;;;;;;;;;;;;;;;
2022/10/19 01:17:10;;;;;;;;;;;;;;;;;;;;;
2022/10/19 01:20:44;;;;;;;;;;;;;;;;;;;;;
2022/10/19 01:35:26;;;;;;;;;;;;;;;;;;;;;
2022/10/19 01:38:41;;;;;;;0.98;0.70;;;;;;;-145.06;24.23;60892.56;4771902;29;20051;-93
2022/10/19 01:45:40;;;;;;;0.90;0.60;;;;;;;-145.06;24.23;60892.56;4734253;28;20385;-93
2022/10/19 01:56:33;;;;;;;0.65;0.60;;;;;;;-145.06;24.23;60892.56;4869074;28;20037;-93
2022/10/19 01:59:24;;;;;;;0.88;0.60;;;;;;;-145.06;24.23;60892.56;4837322;28;20026;-93
2022/10/19 02:02:37;;;;;;;0.88;0.70;;;;;;;-145.06;24.23;60892.56;4835643;28;20030;-93
2022/10/19 02:06:18;;;;;;;1.05;0.60;;;;;;;-145.06;24.23;60892.56;4835517;28;20025;-92
2022/10/19 02:09:39;;;;;;;;;;;;;;;;;;;;;
2022/10/19 02:12:32;;;;;;;0.73;0.60;;;;;;;-145.06;24.23;60892.56;4772824;29;20032;-93
2022/10/19 02:20:56;;;;;;;;;;;;;;;-145.06;24.23;60892.56;5342873;22;20073;-93
2022/10/19 02:24:27;;;;;;;;;;;;;;;;;;;;;
2022/10/19 02:31:42;;;;;;;;;;;;;;;;;;;;;
2022/10/19 02:38:10;;;;;;;0.90;0.70;;;;;;;-145.06;24.23;60892.56;4853643;28;20065;-92
2022/10/19 02:41:43;;;;;;;0.93;0.73;;;;;;;-145.06;24.23;60892.56;4837926;28;20112;-93
2022/10/19 02:48:56;;;;;;;1.00;0.70;;;;;;;-145.06;24.23;60892.56;4796194;28;20383;-93
2022/10/19 02:55:51;;;;;;;;;;;;;;;;;;;;;
2022/10/19 02:59:27;;;;;;;1.67;0.88;;;;;;;-145.06;24.23;60892.56;4832663;28;20034;-92
2022/10/19 03:02:51;;;;;;;0.80;0.70;;;;;;;-145.06;24.23;60892.56;4834227;28;20034;-94
2022/10/19 03:10:18;;;;;;;;;;;;;;;;;;;;;
2022/10/19 03:13:10;;;;;;;0.93;0.75;;;;;;;-145.06;24.23;60892.56;4775624;29;20039;-92
2022/10/19 03:45:46;;;;;;;1.23;0.57;;;;;;;-145.06;24.23;60892.56;4848310;28;19935;-91
2022/10/19 03:48:27;;;;;;;0.98;0.77;;;;;;;-145.06;24.23;60892.56;4823765;28;20112;-91
2022/10/19 03:51:14;;;;;;;1.17;1.00;;;;;;;-145.06;24.23;60892.56;4833848;28;20034;-91
2022/10/19 03:54:03;;;;;;;1.92;1.10;;;;;;;-145.06;24.23;60892.56;4837252;28;20025;-91
2022/10/19 03:56:45;;;;;;;1.20;0.88;;;;;;;-145.06;24.23;60892.56;4855800;28;20029;-90
2022/10/19 03:59:31;;;;;;;1.50;1.00;;;;;;;-145.06;24.23;60892.56;4837939;28;20034;-91
2022/10/19 04:02:13;;;;;;;1.02;0.88;;;;;;;-145.06;24.23;60892.56;4821676;28;20034;-91
2022/10/19 04:04:55;;;;;;;2.15;1.02;;;;;;;-145.06;24.23;60892.56;4834558;28;20026;-92
2022/10/19 04:07:42;;;;;;;1.35;1.10;;;;;;;-145.06;24.23;60892.56;4852456;28;20029;-91
2022/10/19 04:10:33;;;;;;;2.53;1.52;;;;;;;-145.06;24.23;60892.56;4831860;28;20072;-91
2022/10/19 04:21:10;;;;;;;2.10;1.20;;;;;;;-145.06;24.23;60892.56;4793815;28;20044;-91
2022/10/19 04:23:58;;;;;;;2.33;1.42;;;;;;;-145.06;24.23;60892.56;4836722;28;20037;-90
2022/10/19 04:27:18;;;;;;;1.63;1.30;;;;;;;-145.06;24.23;60892.56;4832118;28;20033;-91
2022/10/19 04:30:31;;;;;;;1.60;0.90;;;;;;;-145.06;24.23;60892.56;4825571;28;20077;-90
2022/10/19 04:33:13;;;;;;;1.67;1.05;;;;;;;-145.06;24.23;60892.56;4849674;28;20026;-91
2022/10/19 04:36:04;;;;;;;1.05;0.75;;;;;;;-145.06;24.23;60892.56;4835571;28;20033;-91
2022/10/19 04:38:49;;;;;;;1.25;1.00;;;;;;;-145.06;24.23;60892.56;4839277;28;20052;-91
2022/10/19 04:41:28;;;;;;;1.40;0.70;;;;;;;-145.06;24.23;60892.56;4852539;28;20029;-91
2022/10/19 04:44:11;;;;;;;0.90;0.80;;;;;;;-145.06;24.23;60892.56;4844717;28;20030;-92
2022/10/19 04:46:51;;;;;;;0.82;0.77;;;;;;;-145.06;24.23;60892.56;4830823;28;20037;-91
2022/10/19 04:49:30;;;;;;;0.80;0.80;;;;;;;-145.06;24.23;60892.56;4845546;28;20025;-91
2022/10/19 04:52:38;;;;;;;;;;;;;;;;;;;;;
2022/10/19 04:55:17;;;;;;;0.80;0.60;;;;;;;-145.06;24.23;60892.56;4844547;28;20487;-93
2022/10/19 04:57:59;;;;;;;1.00;0.80;;;;;;;-145.06;24.23;60892.56;4821167;28;20022;-91
2022/10/19 05:01:40;;;;;;;;;;;;;;;;;;;;;
2022/10/19 05:05:06;;;;;;;0.88;0.65;;;;;;;-145.06;24.23;60892.56;4805305;28;20034;-91
2022/10/19 05:19:04;;;;;;;0.70;0.70;;;;;;;-145.06;24.23;60892.56;4831793;28;20030;-91
2022/10/19 05:22:32;;;;;;;0.70;0.70;;;;;;;-145.06;24.23;60892.56;4815926;28;20038;-90
2022/10/19 05:25:42;;;;;;;0.70;0.65;;;;;;;-145.06;24.23;60892.56;4817523;28;20274;-92
2022/10/19 05:29:25;;;;;;;;;;;;;;;;;;;;;
2022/10/19 05:32:50;;;;;;;1.00;0.80;;;;;;;-145.06;24.23;60892.56;4839756;28;20029;-91
2022/10/19 05:36:27;;;;;;;;;;;;;;;;;;;;;
2022/10/19 05:39:52;;;;;;;1.08;0.73;;;;;;;-145.06;24.23;60892.56;4833642;28;20030;-92
2022/10/19 05:43:11;;;;;;;0.82;0.60;;;;;;;-145.06;24.23;60892.56;4812623;28;20022;-91
2022/10/19 05:49:29;;;;;;;0.77;0.70;;;;;;;-145.06;24.23;60892.56;4851290;28;20062;-91
2022/10/19 05:52:37;;;;;;;0.88;0.75;;;;;;;-145.06;24.23;60892.56;4837439;28;20038;-92
2022/10/19 05:56:07;;;;;;;0.88;0.88;;;;;;;-145.06;24.23;60892.56;4867747;28;20038;-91
2022/10/19 05:59:44;;;;;;;1.33;0.93;;;;;;;-145.06;24.23;60892.56;4849978;28;20065;-92
2022/10/19 06:04:03;;;;;;;0.82;0.75;;;;;;;-145.06;24.23;60892.56;4822436;28;20117;-92
2022/10/19 06:07:23;;;;;;;1.48;1.00;;;;;;;-145.06;24.23;60892.56;4847006;28;20037;-92
2022/10/19 06:10:57;;;;;;;;;;;;;;;;;;;;;
2022/10/19 06:32:50;;;;;;;0.95;0.85;;;;;;;-145.06;24.23;60892.56;4987129;23;19922;-91
2022/10/19 06:36:06;;;;;;;0.73;0.70;;;;;;;-145.06;24.23;60892.56;4844389;28;20118;-92
2022/10/19 06:38:54;;;;;;;0.80;0.70;;;;;;;-145.06;24.23;60892.56;4832049;28;20089;-92
2022/10/19 06:45:14;;;;;;;0.80;0.80;;;;;;;-145.06;24.23;60892.56;4825169;28;20042;-91
2022/10/19 06:52:15;;;;;;;1.08;0.85;;;;;;;-145.06;24.23;60892.56;4770769;29;20111;-92
2022/10/19 06:55:40;;;;;;;1.15;0.95;;;;;;;-145.06;24.23;60892.56;4769730;29;20063;-91
2022/10/19 06:58:20;;;;;;;1.15;0.80;;;;;;;-145.06;24.23;60892.56;4767546;29;20040;-92
2022/10/19 07:01:34;;;;;;;0.80;0.80;;;;;;;-145.06;24.23;60892.56;4754371;29;20032;-91
2022/10/19 07:04:20;;;;;;;1.00;0.90;;;;;;;-145.06;24.23;60892.56;4834212;28;20038;-93
2022/10/19 07:07:07;;;;;;;0.80;0.80;;;;;;;-145.06;24.23;60892.56;4853460;28;20029;-91
2022/10/19 07:10:00;;;;;;;1.00;0.90;;;;;;;-145.06;24.23;60892.56;4850569;28;20053;-92
2022/10/19 13:20:05;;;;;;;2.47;1.63;;;;;;;-145.06;24.23;60892.56;5818369;23;20036;-92
